Time;durP1;ratioP1;P1;durP2;ratioP2;P2;SDS_P1;SDS_P2;PMS_P1;PMS_P2;Temp;Humidity;BMP_temperature;BMP_pressure;BME280_temperature;BME280_humidity;BME280_pressure;Samples;Min_cycle;Max_cycle;Signal;HPM_P1;HPM_P2
2022/10/25 00:01:28;;;;;;;;;;;;;;;;;;5131997;28;19933;-37
2022/10/25 00:03:54;;;;;;;;;;;;;;;;;;5119368;27;19911;-39
2022/10/25 00:06:20;;;;;;;;;;;;;;;;;;5102382;27;19947;-41
2022/10/25 00:08:46;;;;;;;;;;;;;;;;;;5125244;28;19928;-38
2022/10/25 00:11:12;;;;;;;;;;;;;;;;;;5125062;27;19907;-38
2022/10/25 00:13:38;;;;;;;;;;;;;;;;;;5134446;27;19915;-38
2022/10/25 00:16:04;;;;;;;;;;;;;;;;;;5135598;27;20412;-38
2022/10/25 00:18:30;;;;;;;;;;;;;;;;;;5134808;27;19915;-40
2022/10/25 00:20:55;;;;;;;;;;;;;;;;;;5125660;27;20272;-38
2022/10/25 00:23:21;;;;;;;;;;;;;;;;;;5130304;27;19914;-38
2022/10/25 00:25:47;;;;;;;;;;;;;;;;;;5135217;27;20003;-38
2022/10/25 00:28:13;;;;;;;;;;;;;;;;;;5135220;27;19915;-38
2022/10/25 00:30:39;;;;;;;;;;;;;;;;;;5134738;27;19908;-38
2022/10/25 00:33:05;;;;;;;;;;;;;;;;;;5135648;27;20387;-38
2022/10/25 00:35:31;;;;;;;;;;;;;;;;;;5134317;27;19907;-38
2022/10/25 00:37:56;;;;;;;;;;;;;;;;;;5135336;27;19907;-38
2022/10/25 00:40:22;;;;;;;;;;;;;;;;;;5133477;27;19977;-38
2022/10/25 00:42:48;;;;;;;;;;;;;;;;;;5135090;27;19922;-37
2022/10/25 00:45:14;;;;;;;;;;;;;;;;;;5134577;27;20368;-38
2022/10/25 00:47:40;;;;;;;;;;;;;;;;;;5134630;27;19981;-38
2022/10/25 00:50:06;;;;;;;;;;;;;;;;;;5134301;27;20020;-38
2022/10/25 00:52:32;;;;;;;;;;;;;;;;;;5134209;27;20276;-38
2022/10/25 00:54:57;;;;;;;;;;;;;;;;;;5134491;27;19961;-38
2022/10/25 00:57:23;;;;;;;;;;;;;;;;;;5130043;27;19912;-38
2022/10/25 00:59:49;;;;;;;;;;;;;;;;;;5134179;27;19922;-38
2022/10/25 01:02:15;;;;;;;;;;;;;;;;;;5134723;27;20387;-38
2022/10/25 01:04:41;;;;;;;;;;;;;;;;;;5134211;27;19942;-38
2022/10/25 01:07:07;;;;;;;;;;;;;;;;;;5134415;27;19923;-37
2022/10/25 01:09:33;;;;;;;;;;;;;;;;;;5137548;27;19911;-38
2022/10/25 01:11:59;;;;;;;;;;;;;;;;;;5141015;27;19912;-39
2022/10/25 01:14:25;;;;;;;;;;;;;;;;;;5138799;27;19961;-38
2022/10/25 01:16:51;;;;;;;;;;;;;;;;;;5143391;27;20005;-38
2022/10/25 01:19:17;;;;;;;;;;;;;;;;;;5133108;27;20017;-38
2022/10/25 01:21:43;;;;;;;;;;;;;;;;;;5141458;27;19908;-38
2022/10/25 01:24:09;;;;;;;;;;;;;;;;;;5140491;27;19913;-38
2022/10/25 01:26:35;;;;;;;;;;;;;;;;;;5140134;27;19907;-38
2022/10/25 01:29:01;;;;;;;;;;;;;;;;;;5140752;27;19943;-38
2022/10/25 01:31:27;;;;;;;;;;;;;;;;;;5138175;27;19911;-38
2022/10/25 01:33:53;;;;;;;;;;;;;;;;;;5136863;27;20803;-40
2022/10/25 01:36:18;;;;;;;;;;;;;;;;;;5137296;27;19911;-41
2022/10/25 01:38:44;;;;;;;;;;;;;;;;;;5139483;27;19963;-38
2022/10/25 01:41:10;;;;;;;;;;;;;;;;;;5141123;27;19911;-38
2022/10/25 01:43:37;;;;;;;;;;;;;;;;;;5138548;27;20390;-39
2022/10/25 01:46:03;;;;;;;;;;;;;;;;;;5139585;27;19908;-38
2022/10/25 01:48:29;;;;;;;;;;;;;;;;;;5141680;27;19914;-40
2022/10/25 01:50:55;;;;;;;;;;;;;;;;;;5133765;27;19950;-38
2022/10/25 01:53:21;;;;;;;;;;;;;;;;;;5135605;27;20005;-43
2022/10/25 01:55:47;;;;;;;;;;;;;;;;;;5137268;27;19923;-39
2022/10/25 01:58:12;;;;;;;;;;;;;;;;;;5135734;27;19953;-37
2022/10/25 02:00:38;;;;;;;;;;;;;;;;;;5131060;27;19908;-39
2022/10/25 02:03:04;;;;;;;;;;;;;;;;;;5137833;27;19914;-38
2022/10/25 02:05:30;;;;;;;;;;;;;;;;;;5139159;27;19907;-38
2022/10/25 02:07:56;;;;;;;;;;;;;;;;;;5138359;27;20392;-38
2022/10/25 02:10:22;;;;;;;;;;;;;;;;;;5129861;27;19914;-41
2022/10/25 02:12:48;;;;;;;;;;;;;;;;;;5133509;27;19923;-39
2022/10/25 02:15:14;;;;;;;;;;;;;;;;;;5142775;27;19947;-38
2022/10/25 02:17:39;;;;;;;;;;;;;;;;;;5136061;27;19903;-38
2022/10/25 02:20:05;;;;;;;;;;;;;;;;;;5132547;27;19916;-38
2022/10/25 02:22:31;;;;;;;;;;;;;;;;;;5141745;27;20029;-38
2022/10/25 02:24:57;;;;;;;;;;;;;;;;;;5133579;27;19919;-38
2022/10/25 02:27:23;;;;;;;;;;;;;;;;;;5132801;27;20267;-38
2022/10/25 02:29:49;;;;;;;;;;;;;;;;;;5130259;27;19908;-40
2022/10/25 02:32:15;;;;;;;;;;;;;;;;;;5124757;27;20402;-38
2022/10/25 02:34:40;;;;;;;;;;;;;;;;;;5131965;27;19904;-38
2022/10/25 02:37:06;;;;;;;;;;;;;;;;;;5133376;27;20317;-38
2022/10/25 02:39:32;;;;;;;;;;;;;;;;;;5131563;27;19915;-38
2022/10/25 02:44:42;;;;;;;;;;;;;;;;;;5138771;27;19949;-38
2022/10/25 02:47:08;;;;;;;;;;;;;;;;;;5132831;27;19907;-39
2022/10/25 02:49:34;;;;;;;;;;;;;;;;;;5117544;27;20003;-38
2022/10/25 02:52:00;;;;;;;;;;;;;;;;;;5133069;27;19911;-38
2022/10/25 02:54:26;;;;;;;;;;;;;;;;;;5121518;28;19907;-38
2022/10/25 02:56:52;;;;;;;;;;;;;;;;;;5133875;27;19974;-38
2022/10/25 02:59:19;;;;;;;;;;;;;;;;;;5132324;27;19916;-37
2022/10/25 03:01:45;;;;;;;;;;;;;;;;;;5128667;27;19915;-37
2022/10/25 03:04:11;;;;;;;;;;;;;;;;;;5111917;28;19908;-38
2022/10/25 03:06:37;;;;;;;;;;;;;;;;;;5111808;28;19919;-38
2022/10/25 03:09:03;;;;;;;;;;;;;;;;;;5118561;28;20342;-38
2022/10/25 03:11:29;;;;;;;;;;;;;;;;;;5120221;28;19914;-38
2022/10/25 03:13:55;;;;;;;;;;;;;;;;;;5112017;28;19912;-38
2022/10/25 03:16:21;;;;;;;;;;;;;;;;;;5112072;28;19961;-38
2022/10/25 03:18:46;;;;;;;;;;;;;;;;;;5111790;28;20014;-38
2022/10/25 03:21:12;;;;;;;;;;;;;;;;;;5125967;28;19907;-38
2022/10/25 03:23:38;;;;;;;;;;;;;;;;;;5117874;28;19908;-38
2022/10/25 03:26:04;;;;;;;;;;;;;;;;;;5116974;28;19958;-38
2022/10/25 03:28:30;;;;;;;;;;;;;;;;;;5127172;28;19912;-42
2022/10/25 03:30:56;;;;;;;;;;;;;;;;;;5132327;28;19907;-38
2022/10/25 03:33:22;;;;;;;;;;;;;;;;;;5120851;28;19912;-42
2022/10/25 03:35:48;;;;;;;;;;;;;;;;;;5123069;28;20264;-37
2022/10/25 03:38:14;;;;;;;;;;;;;;;;;;5131645;28;19908;-38
2022/10/25 03:40:40;;;;;;;;;;;;;;;;;;5122257;28;19919;-38
2022/10/25 03:43:05;;;;;;;;;;;;;;;;;;5132657;27;19969;-38
2022/10/25 03:45:31;;;;;;;;;;;;;;;;;;5134399;27;19911;-38
2022/10/25 03:47:57;;;;;;;;;;;;;;;;;;5136462;27;20010;-38
2022/10/25 03:50:23;;;;;;;;;;;;;;;;;;5134269;27;20417;-41
2022/10/25 03:52:49;;;;;;;;;;;;;;;;;;5133265;27;19919;-38
2022/10/25 03:55:15;;;;;;;;;;;;;;;;;;5135806;27;19912;-38
2022/10/25 03:57:41;;;;;;;;;;;;;;;;;;5135514;27;19908;-38
2022/10/25 04:00:07;;;;;;;;;;;;;;;;;;5135298;27;20396;-38
2022/10/25 04:02:32;;;;;;;;;;;;;;;;;;5135234;27;19915;-38
2022/10/25 04:04:58;;;;;;;;;;;;;;;;;;5135539;27;20275;-38
2022/10/25 04:07:24;;;;;;;;;;;;;;;;;;5134941;27;19920;-41
2022/10/25 04:09:52;;;;;;;;;;;;;;;;;;5134215;27;20321;-38
2022/10/25 04:12:18;;;;;;;;;;;;;;;;;;5135739;27;19998;-38
2022/10/25 04:14:44;;;;;;;;;;;;;;;;;;5134606;27;19982;-38
2022/10/25 04:17:09;;;;;;;;;;;;;;;;;;5135500;27;19908;-38
2022/10/25 04:19:35;;;;;;;;;;;;;;;;;;5134246;27;20451;-38
2022/10/25 04:22:01;;;;;;;;;;;;;;;;;;5124281;27;19917;-38
2022/10/25 04:24:27;;;;;;;;;;;;;;;;;;5134176;27;20425;-38
2022/10/25 04:26:53;;;;;;;;;;;;;;;;;;5135178;27;19923;-38
2022/10/25 04:29:19;;;;;;;;;;;;;;;;;;5125946;27;19907;-38
2022/10/25 04:31:45;;;;;;;;;;;;;;;;;;5134904;27;19994;-38
2022/10/25 04:34:11;;;;;;;;;;;;;;;;;;5127940;27;19929;-43
2022/10/25 04:36:37;;;;;;;;;;;;;;;;;;5127837;27;19915;-38
2022/10/25 04:39:03;;;;;;;;;;;;;;;;;;5114785;28;19918;-38
2022/10/25 04:41:29;;;;;;;;;;;;;;;;;;5114440;28;19916;-38
2022/10/25 04:43:55;;;;;;;;;;;;;;;;;;5114673;28;20376;-38
2022/10/25 04:46:21;;;;;;;;;;;;;;;;;;5119921;27;19908;-38
2022/10/25 04:48:47;;;;;;;;;;;;;;;;;;5134199;27;19918;-38
2022/10/25 04:51:13;;;;;;;;;;;;;;;;;;5125741;27;19911;-38
2022/10/25 04:53:39;;;;;;;;;;;;;;;;;;5128440;27;19914;-41
2022/10/25 04:56:04;;;;;;;;;;;;;;;;;;5133884;27;19957;-38
2022/10/25 04:58:30;;;;;;;;;;;;;;;;;;5106569;27;20021;-38
2022/10/25 05:00:56;;;;;;;;;;;;;;;;;;5132727;27;19912;-38
2022/10/25 05:03:22;;;;;;;;;;;;;;;;;;5134948;27;19908;-38
2022/10/25 05:05:48;;;;;;;;;;;;;;;;;;5136658;27;19920;-38
2022/10/25 05:08:14;;;;;;;;;;;;;;;;;;5120014;27;20353;-38
2022/10/25 05:10:40;;;;;;;;;;;;;;;;;;5110014;28;19912;-38
2022/10/25 05:13:06;;;;;;;;;;;;;;;;;;5113782;28;19908;-37
2022/10/25 05:15:31;;;;;;;;;;;;;;;;;;5111749;28;20361;-38
2022/10/25 05:17:57;;;;;;;;;;;;;;;;;;5113806;28;19916;-38
2022/10/25 05:20:23;;;;;;;;;;;;;;;;;;5108467;28;19956;-39
2022/10/25 05:22:49;;;;;;;;;;;;;;;;;;5113889;28;19919;-38
2022/10/25 05:25:15;;;;;;;;;;;;;;;;;;5113386;28;19961;-38
2022/10/25 05:27:41;;;;;;;;;;;;;;;;;;5113258;28;19957;-38
2022/10/25 05:30:07;;;;;;;;;;;;;;;;;;5108716;28;19962;-38
2022/10/25 05:32:33;;;;;;;;;;;;;;;;;;5104609;28;20323;-38
2022/10/25 05:34:58;;;;;;;;;;;;;;;;;;5111269;28;19918;-38
2022/10/25 05:37:24;;;;;;;;;;;;;;;;;;5102421;28;20007;-41
2022/10/25 05:39:50;;;;;;;;;;;;;;;;;;5110015;28;19947;-38
2022/10/25 05:42:16;;;;;;;;;;;;;;;;;;5111844;28;19924;-38
2022/10/25 05:44:42;;;;;;;;;;;;;;;;;;5107247;28;19912;-38
2022/10/25 05:47:08;;;;;;;;;;;;;;;;;;5113855;28;19958;-38
2022/10/25 05:49:38;;;;;;;;;;;;;;;;;;5111241;28;20284;-38
2022/10/25 05:52:04;;;;;;;;;;;;;;;;;;5109806;28;19915;-38
2022/10/25 05:54:30;;;;;;;;;;;;;;;;;;5102022;28;20330;-38
2022/10/25 05:56:56;;;;;;;;;;;;;;;;;;5114004;28;19955;-38
2022/10/25 05:59:21;;;;;;;;;;;;;;;;;;5112728;28;19916;-38
2022/10/25 06:01:47;;;;;;;;;;;;;;;;;;5112874;28;19926;-38
2022/10/25 06:04:13;;;;;;;;;;;;;;;;;;5113024;28;20273;-38
2022/10/25 06:06:39;;;;;;;;;;;;;;;;;;5102250;27;19995;-38
2022/10/25 06:09:05;;;;;;;;;;;;;;;;;;5106483;27;19912;-38
2022/10/25 06:11:31;;;;;;;;;;;;;;;;;;5102247;28;19908;-38
2022/10/25 06:13:57;;;;;;;;;;;;;;;;;;5110199;28;19962;-41
2022/10/25 06:16:23;;;;;;;;;;;;;;;;;;5112523;28;19998;-39
2022/10/25 06:18:48;;;;;;;;;;;;;;;;;;5111849;28;19911;-39
2022/10/25 06:21:14;;;;;;;;;;;;;;;;;;5112092;28;19916;-40
2022/10/25 06:23:40;;;;;;;;;;;;;;;;;;5107537;28;19911;-40
2022/10/25 06:26:06;;;;;;;;;;;;;;;;;;5110266;28;20360;-40
2022/10/25 06:28:32;;;;;;;;;;;;;;;;;;5111693;28;19965;-40
2022/10/25 06:30:58;;;;;;;;;;;;;;;;;;5111379;28;19946;-40
2022/10/25 06:33:24;;;;;;;;;;;;;;;;;;5108479;28;20264;-40
2022/10/25 06:35:49;;;;;;;;;;;;;;;;;;5108294;28;19912;-39
2022/10/25 06:38:15;;;;;;;;;;;;;;;;;;5102640;28;19954;-39
2022/10/25 06:40:41;;;;;;;;;;;;;;;;;;5110922;28;19912;-40
2022/10/25 06:43:07;;;;;;;;;;;;;;;;;;5112479;28;19915;-40
2022/10/25 06:45:33;;;;;;;;;;;;;;;;;;5121185;27;20384;-40
2022/10/25 06:47:59;;;;;;;;;;;;;;;;;;5111706;28;19922;-40
2022/10/25 06:50:25;;;;;;;;;;;;;;;;;;5111047;28;19957;-40
2022/10/25 06:52:50;;;;;;;;;;;;;;;;;;5109919;28;19907;-40
2022/10/25 06:55:16;;;;;;;;;;;;;;;;;;5109835;28;20015;-39
2022/10/25 06:57:42;;;;;;;;;;;;;;;;;;5109062;28;20315;-39
2022/10/25 07:00:08;;;;;;;;;;;;;;;;;;5107694;28;19924;-39
2022/10/25 07:02:34;;;;;;;;;;;;;;;;;;5110939;28;19911;-39
2022/10/25 07:05:00;;;;;;;;;;;;;;;;;;5109795;28;19908;-39
2022/10/25 07:07:26;;;;;;;;;;;;;;;;;;5117973;27;20009;-40
2022/10/25 07:09:52;;;;;;;;;;;;;;;;;;5129044;28;19908;-39
2022/10/25 07:12:17;;;;;;;;;;;;;;;;;;5127713;28;19917;-40
2022/10/25 07:14:43;;;;;;;;;;;;;;;;;;5129893;28;20027;-40
2022/10/25 07:17:09;;;;;;;;;;;;;;;;;;5129343;28;19908;-40
2022/10/25 07:19:35;;;;;;;;;;;;;;;;;;5133881;27;19911;-39
2022/10/25 07:22:01;;;;;;;;;;;;;;;;;;5133717;27;19924;-40
2022/10/25 07:24:27;;;;;;;;;;;;;;;;;;5131166;27;19915;-43
2022/10/25 07:26:53;;;;;;;;;;;;;;;;;;5135916;27;19951;-39
2022/10/25 07:29:19;;;;;;;;;;;;;;;;;;5134568;27;19908;-39
2022/10/25 07:31:45;;;;;;;;;;;;;;;;;;5134026;27;20364;-40
2022/10/25 07:34:10;;;;;;;;;;;;;;;;;;5133831;27;19954;-40
2022/10/25 07:36:36;;;;;;;;;;;;;;;;;;5135071;27;19911;-40
2022/10/25 07:39:02;;;;;;;;;;;;;;;;;;5131943;27;19927;-39
2022/10/25 07:41:28;;;;;;;;;;;;;;;;;;5134656;27;20073;-43
2022/10/25 07:43:54;;;;;;;;;;;;;;;;;;5133967;27;19911;-40
2022/10/25 07:46:20;;;;;;;;;;;;;;;;;;5134710;27;19912;-40
2022/10/25 07:48:46;;;;;;;;;;;;;;;;;;5131940;27;19915;-40
2022/10/25 07:51:12;;;;;;;;;;;;;;;;;;5135989;27;19957;-40
2022/10/25 07:53:37;;;;;;;;;;;;;;;;;;5135089;27;19915;-40
2022/10/25 07:56:03;;;;;;;;;;;;;;;;;;5133839;27;21205;-39
2022/10/25 07:58:29;;;;;;;;;;;;;;;;;;5133665;27;19944;-40
2022/10/25 08:00:55;;;;;;;;;;;;;;;;;;5131231;27;20420;-39
2022/10/25 08:03:21;;;;;;;;;;;;;;;;;;5135887;27;19913;-40
2022/10/25 08:05:47;;;;;;;;;;;;;;;;;;5135228;27;20360;-40
2022/10/25 08:08:13;;;;;;;;;;;;;;;;;;5132015;27;19928;-39
2022/10/25 08:10:39;;;;;;;;;;;;;;;;;;5131159;27;19916;-40
2022/10/25 08:13:04;;;;;;;;;;;;;;;;;;5130178;27;19994;-39
2022/10/25 08:15:30;;;;;;;;;;;;;;;;;;5128154;27;20275;-43
2022/10/25 08:17:56;;;;;;;;;;;;;;;;;;5130065;27;20402;-40
2022/10/25 08:20:22;;;;;;;;;;;;;;;;;;5136924;27;19918;-39
2022/10/25 08:22:48;;;;;;;;;;;;;;;;;;5126618;27;20348;-43
2022/10/25 08:25:14;;;;;;;;;;;;;;;;;;5122802;27;19950;-40
2022/10/25 08:27:40;;;;;;;;;;;;;;;;;;5137239;27;20351;-40
2022/10/25 08:30:06;;;;;;;;;;;;;;;;;;5135182;27;19952;-40
2022/10/25 08:32:33;;;;;;;;;;;;;;;;;;5135384;27;20416;-45
2022/10/25 08:34:59;;;;;;;;;;;;;;;;;;5134684;27;19907;-39
2022/10/25 08:37:24;;;;;;;;;;;;;;;;;;5129579;27;19907;-40
2022/10/25 08:39:50;;;;;;;;;;;;;;;;;;5130533;27;19915;-40
2022/10/25 08:42:16;;;;;;;;;;;;;;;;;;5126132;27;20018;-40
2022/10/25 08:44:42;;;;;;;;;;;;;;;;;;5126126;27;19957;-40
2022/10/25 08:47:08;;;;;;;;;;;;;;;;;;5130694;27;20411;-40
2022/10/25 08:49:34;;;;;;;;;;;;;;;;;;5127200;27;19908;-39
2022/10/25 08:52:00;;;;;;;;;;;;;;;;;;5133268;27;19908;-39
2022/10/25 08:54:26;;;;;;;;;;;;;;;;;;5139154;27;20303;-39
2022/10/25 08:56:52;;;;;;;;;;;;;;;;;;5134410;27;19962;-41
2022/10/25 08:59:18;;;;;;;;;;;;;;;;;;5127813;27;19911;-39
2022/10/25 09:01:43;;;;;;;;;;;;;;;;;;5135676;27;20412;-39
2022/10/25 09:04:09;;;;;;;;;;;;;;;;;;5128218;27;19937;-39
2022/10/25 09:06:36;;;;;;;;;;;;;;;;;;5134031;27;19907;-40
2022/10/25 09:09:04;;;;;;;;;;;;;;;;;;5134378;27;19911;-39
2022/10/25 09:11:30;;;;;;;;;;;;;;;;;;5120040;27;19939;-44
2022/10/25 09:13:55;;;;;;;;;;;;;;;;;;5130981;27;20437;-40
2022/10/25 09:16:21;;;;;;;;;;;;;;;;;;5134705;27;19931;-39
2022/10/25 09:18:47;;;;;;;;;;;;;;;;;;5133331;27;19965;-40
2022/10/25 09:21:13;;;;;;;;;;;;;;;;;;5131070;27;19969;-40
2022/10/25 09:23:39;;;;;;;;;;;;;;;;;;5127868;27;19994;-39
2022/10/25 09:26:05;;;;;;;;;;;;;;;;;;5116934;27;20311;-39
2022/10/25 09:28:31;;;;;;;;;;;;;;;;;;5133938;27;19919;-45
2022/10/25 09:30:56;;;;;;;;;;;;;;;;;;5133241;27;20372;-39
2022/10/25 09:33:22;;;;;;;;;;;;;;;;;;5134559;27;19964;-39
2022/10/25 09:35:48;;;;;;;;;;;;;;;;;;5132880;27;19914;-39
2022/10/25 09:38:14;;;;;;;;;;;;;;;;;;5133577;27;19912;-39
2022/10/25 09:40:40;;;;;;;;;;;;;;;;;;5119289;27;19916;-39
2022/10/25 09:43:06;;;;;;;;;;;;;;;;;;5125441;27;19922;-40
2022/10/25 09:45:32;;;;;;;;;;;;;;;;;;5131342;27;19914;-40
2022/10/25 09:47:58;;;;;;;;;;;;;;;;;;5133966;27;20261;-39
2022/10/25 09:50:24;;;;;;;;;;;;;;;;;;5130501;27;20376;-40
2022/10/25 09:52:49;;;;;;;;;;;;;;;;;;5132296;27;19956;-40
2022/10/25 09:55:15;;;;;;;;;;;;;;;;;;5131048;27;19908;-40
2022/10/25 09:57:41;;;;;;;;;;;;;;;;;;5131002;27;20359;-39
2022/10/25 10:00:07;;;;;;;;;;;;;;;;;;5135420;27;19960;-39
2022/10/25 10:02:33;;;;;;;;;;;;;;;;;;5133087;27;19918;-40
2022/10/25 10:04:59;;;;;;;;;;;;;;;;;;5118892;27;19907;-39
2022/10/25 10:07:25;;;;;;;;;;;;;;;;;;5122451;27;19927;-39
2022/10/25 10:09:51;;;;;;;;;;;;;;;;;;5130189;27;20168;-39
2022/10/25 10:12:16;;;;;;;;;;;;;;;;;;5114231;27;19915;-39
2022/10/25 10:14:42;;;;;;;;;;;;;;;;;;5132165;27;19908;-39
2022/10/25 10:17:10;;;;;;;;;;;;;;;;;;5133293;27;20006;-39
2022/10/25 10:19:36;;;;;;;;;;;;;;;;;;5132528;27;20286;-39
2022/10/25 10:22:02;;;;;;;;;;;;;;;;;;5133675;27;19911;-39
2022/10/25 10:24:27;;;;;;;;;;;;;;;;;;5130559;27;19947;-39
2022/10/25 10:26:55;;;;;;;;;;;;;;;;;;5135729;27;19908;-39
2022/10/25 10:29:21;;;;;;;;;;;;;;;;;;5127877;27;19908;-39
2022/10/25 10:31:47;;;;;;;;;;;;;;;;;;5129117;27;19935;-40
2022/10/25 10:34:13;;;;;;;;;;;;;;;;;;5110906;27;19919;-40
2022/10/25 10:36:41;;;;;;;;;;;;;;;;;;5132518;27;19907;-39
2022/10/25 10:39:07;;;;;;;;;;;;;;;;;;5139439;27;19922;-40
2022/10/25 10:41:33;;;;;;;;;;;;;;;;;;5140919;27;19977;-46
2022/10/25 10:43:59;;;;;;;;;;;;;;;;;;5130268;27;19907;-39
2022/10/25 10:46:24;;;;;;;;;;;;;;;;;;5123146;27;20314;-39
2022/10/25 10:48:50;;;;;;;;;;;;;;;;;;5130953;27;19907;-40
2022/10/25 10:51:16;;;;;;;;;;;;;;;;;;5120578;27;19915;-39
2022/10/25 10:53:42;;;;;;;;;;;;;;;;;;5136386;27;19964;-40
2022/10/25 10:56:08;;;;;;;;;;;;;;;;;;5131918;27;19907;-40
2022/10/25 10:58:34;;;;;;;;;;;;;;;;;;5131916;27;20387;-45
2022/10/25 11:01:00;;;;;;;;;;;;;;;;;;5128232;27;20014;-39
2022/10/25 11:03:26;;;;;;;;;;;;;;;;;;5126540;27;19998;-40
2022/10/25 11:05:52;;;;;;;;;;;;;;;;;;5127446;28;19940;-39
2022/10/25 11:08:18;;;;;;;;;;;;;;;;;;5128464;27;20346;-40
2022/10/25 11:10:43;;;;;;;;;;;;;;;;;;5115568;28;19957;-40
2022/10/25 11:13:09;;;;;;;;;;;;;;;;;;5121529;28;19907;-39
2022/10/25 11:15:35;;;;;;;;;;;;;;;;;;5124347;28;20316;-40
2022/10/25 11:18:02;;;;;;;;;;;;;;;;;;5117577;28;19907;-39
2022/10/25 11:20:28;;;;;;;;;;;;;;;;;;5117326;28;19918;-40
2022/10/25 11:22:54;;;;;;;;;;;;;;;;;;5109826;28;19911;-39
2022/10/25 11:25:20;;;;;;;;;;;;;;;;;;5119552;28;20417;-39
2022/10/25 11:27:46;;;;;;;;;;;;;;;;;;5119008;28;19912;-39
2022/10/25 11:30:12;;;;;;;;;;;;;;;;;;5119417;28;19916;-39
2022/10/25 11:32:38;;;;;;;;;;;;;;;;;;5127929;28;19908;-37
2022/10/25 11:35:04;;;;;;;;;;;;;;;;;;5116446;28;20035;-40
2022/10/25 11:37:30;;;;;;;;;;;;;;;;;;5117620;28;20283;-40
2022/10/25 11:39:56;;;;;;;;;;;;;;;;;;5120196;28;19911;-38
2022/10/25 11:42:22;;;;;;;;;;;;;;;;;;5127533;28;20435;-37
2022/10/25 11:44:48;;;;;;;;;;;;;;;;;;5115772;28;19907;-38
2022/10/25 11:47:14;;;;;;;;;;;;;;;;;;5126958;28;19914;-37
2022/10/25 11:49:39;;;;;;;;;;;;;;;;;;5129839;28;19914;-40
2022/10/25 11:52:05;;;;;;;;;;;;;;;;;;5114567;28;19955;-40
2022/10/25 11:54:31;;;;;;;;;;;;;;;;;;5118563;27;20367;-43
2022/10/25 11:56:57;;;;;;;;;;;;;;;;;;5127780;28;19926;-40
2022/10/25 11:59:24;;;;;;;;;;;;;;;;;;5119064;28;20378;-39
2022/10/25 12:01:50;;;;;;;;;;;;;;;;;;5120069;28;20022;-39
2022/10/25 12:04:16;;;;;;;;;;;;;;;;;;5121141;27;20399;-40
2022/10/25 12:06:44;;;;;;;;;;;;;;;;;;5132136;27;19907;-40
2022/10/25 12:09:10;;;;;;;;;;;;;;;;;;5135200;27;19945;-39
2022/10/25 12:11:36;;;;;;;;;;;;;;;;;;5134009;27;19958;-40
2022/10/25 12:14:02;;;;;;;;;;;;;;;;;;5121695;27;20340;-39
2022/10/25 12:16:28;;;;;;;;;;;;;;;;;;5134710;27;19908;-39
2022/10/25 12:18:54;;;;;;;;;;;;;;;;;;5134228;27;20045;-39
2022/10/25 12:21:20;;;;;;;;;;;;;;;;;;5135620;27;20029;-39
2022/10/25 12:23:45;;;;;;;;;;;;;;;;;;5134424;27;19915;-40
2022/10/25 12:26:11;;;;;;;;;;;;;;;;;;5129157;27;20302;-39
2022/10/25 12:28:37;;;;;;;;;;;;;;;;;;5125625;27;19918;-40
2022/10/25 12:31:03;;;;;;;;;;;;;;;;;;5131711;27;19912;-39
2022/10/25 12:33:29;;;;;;;;;;;;;;;;;;5128985;27;20340;-39
2022/10/25 12:35:55;;;;;;;;;;;;;;;;;;5133471;27;19914;-39
2022/10/25 12:38:21;;;;;;;;;;;;;;;;;;5135129;27;19907;-39
2022/10/25 12:40:46;;;;;;;;;;;;;;;;;;5132008;27;19965;-40
2022/10/25 12:43:12;;;;;;;;;;;;;;;;;;5134982;27;19919;-39
2022/10/25 12:45:38;;;;;;;;;;;;;;;;;;5132803;27;20314;-39
2022/10/25 12:48:04;;;;;;;;;;;;;;;;;;5135288;27;19942;-39
2022/10/25 12:50:30;;;;;;;;;;;;;;;;;;5134450;27;20378;-44
2022/10/25 12:52:56;;;;;;;;;;;;;;;;;;5132356;27;19916;-39
2022/10/25 12:55:22;;;;;;;;;;;;;;;;;;5126454;27;19908;-40
2022/10/25 12:57:48;;;;;;;;;;;;;;;;;;5134720;27;20002;-40
2022/10/25 13:00:13;;;;;;;;;;;;;;;;;;5134432;27;19919;-39
2022/10/25 13:02:39;;;;;;;;;;;;;;;;;;5132990;27;20364;-40
2022/10/25 13:05:05;;;;;;;;;;;;;;;;;;5134126;27;20030;-39
2022/10/25 13:07:31;;;;;;;;;;;;;;;;;;5125487;27;19920;-41
2022/10/25 13:09:57;;;;;;;;;;;;;;;;;;5106597;28;19912;-39
2022/10/25 13:12:25;;;;;;;;;;;;;;;;;;5107926;28;19962;-39
2022/10/25 13:14:50;;;;;;;;;;;;;;;;;;5112956;28;19911;-40
2022/10/25 13:17:16;;;;;;;;;;;;;;;;;;5114036;28;19935;-40
2022/10/25 13:19:43;;;;;;;;;;;;;;;;;;5112370;28;19912;-39
2022/10/25 13:22:08;;;;;;;;;;;;;;;;;;5113986;28;19918;-39
2022/10/25 13:24:34;;;;;;;;;;;;;;;;;;5105713;28;19912;-44
2022/10/25 13:27:00;;;;;;;;;;;;;;;;;;5107259;28;19908;-39
2022/10/25 13:29:26;;;;;;;;;;;;;;;;;;5094675;28;20405;-39
2022/10/25 13:31:52;;;;;;;;;;;;;;;;;;5113194;28;20102;-39
2022/10/25 13:34:18;;;;;;;;;;;;;;;;;;5099900;28;19918;-39
2022/10/25 13:36:44;;;;;;;;;;;;;;;;;;5108418;27;19998;-39
2022/10/25 13:39:09;;;;;;;;;;;;;;;;;;5114257;27;19912;-39
2022/10/25 13:41:35;;;;;;;;;;;;;;;;;;5114933;27;20395;-39
2022/10/25 13:44:01;;;;;;;;;;;;;;;;;;5112976;28;19914;-39
2022/10/25 13:46:27;;;;;;;;;;;;;;;;;;5113295;28;19912;-41
2022/10/25 13:48:53;;;;;;;;;;;;;;;;;;5112281;28;20120;-39
2022/10/25 13:51:20;;;;;;;;;;;;;;;;;;5113933;27;19907;-39
2022/10/25 13:53:46;;;;;;;;;;;;;;;;;;5106403;28;20376;-39
2022/10/25 13:56:11;;;;;;;;;;;;;;;;;;5112934;28;20037;-40
2022/10/25 13:58:37;;;;;;;;;;;;;;;;;;5091951;27;20257;-42
2022/10/25 14:01:03;;;;;;;;;;;;;;;;;;5105272;28;19927;-41
2022/10/25 14:03:29;;;;;;;;;;;;;;;;;;5106445;28;19919;-39
2022/10/25 14:05:55;;;;;;;;;;;;;;;;;;5109186;28;19995;-41
2022/10/25 14:08:21;;;;;;;;;;;;;;;;;;5122801;27;20368;-39
2022/10/25 14:10:47;;;;;;;;;;;;;;;;;;5129918;27;19916;-40
2022/10/25 14:13:12;;;;;;;;;;;;;;;;;;5124978;27;20009;-40
2022/10/25 14:15:39;;;;;;;;;;;;;;;;;;5123433;27;19912;-40
2022/10/25 14:18:04;;;;;;;;;;;;;;;;;;5130745;27;19957;-40
2022/10/25 14:20:30;;;;;;;;;;;;;;;;;;5126276;27;19916;-43
2022/10/25 14:22:56;;;;;;;;;;;;;;;;;;5130026;27;19957;-38
2022/10/25 14:25:23;;;;;;;;;;;;;;;;;;5132309;27;19986;-40
2022/10/25 14:27:49;;;;;;;;;;;;;;;;;;5128075;27;19914;-40
2022/10/25 14:30:14;;;;;;;;;;;;;;;;;;5131749;27;20272;-39
2022/10/25 14:32:40;;;;;;;;;;;;;;;;;;5126634;27;20376;-41
2022/10/25 14:35:06;;;;;;;;;;;;;;;;;;5121927;27;19919;-39
2022/10/25 14:37:32;;;;;;;;;;;;;;;;;;5125873;27;19991;-44
2022/10/25 14:40:01;;;;;;;;;;;;;;;;;;5127916;27;19938;-38
2022/10/25 14:42:27;;;;;;;;;;;;;;;;;;5129858;27;19915;-39
2022/10/25 14:44:53;;;;;;;;;;;;;;;;;;5123262;27;20332;-40
2022/10/25 14:47:19;;;;;;;;;;;;;;;;;;5125244;27;19907;-41
2022/10/25 14:49:45;;;;;;;;;;;;;;;;;;5111248;27;19939;-40
2022/10/25 14:52:11;;;;;;;;;;;;;;;;;;5124137;27;20376;-40
2022/10/25 14:54:36;;;;;;;;;;;;;;;;;;5128992;27;19912;-42
2022/10/25 14:57:02;;;;;;;;;;;;;;;;;;5122619;27;20002;-41
2022/10/25 14:59:28;;;;;;;;;;;;;;;;;;5123970;27;20001;-40
2022/10/25 15:01:54;;;;;;;;;;;;;;;;;;5128163;27;19911;-41
2022/10/25 15:04:20;;;;;;;;;;;;;;;;;;5129629;27;20330;-40
2022/10/25 15:06:46;;;;;;;;;;;;;;;;;;5130404;27;19943;-42
2022/10/25 15:09:12;;;;;;;;;;;;;;;;;;5126433;28;19907;-40
2022/10/25 15:11:38;;;;;;;;;;;;;;;;;;5131075;28;19907;-40
2022/10/25 15:14:03;;;;;;;;;;;;;;;;;;5128377;27;19911;-40
2022/10/25 15:16:29;;;;;;;;;;;;;;;;;;5132093;28;19907;-38
2022/10/25 15:18:55;;;;;;;;;;;;;;;;;;5130117;28;20238;-40
2022/10/25 15:21:21;;;;;;;;;;;;;;;;;;5126099;28;19918;-40
2022/10/25 15:23:47;;;;;;;;;;;;;;;;;;5131465;28;19952;-40
2022/10/25 15:26:13;;;;;;;;;;;;;;;;;;5132193;28;20027;-40
2022/10/25 15:28:39;;;;;;;;;;;;;;;;;;5131475;28;20244;-41
2022/10/25 15:31:06;;;;;;;;;;;;;;;;;;5131814;28;19912;-40
2022/10/25 15:33:32;;;;;;;;;;;;;;;;;;5132226;28;20348;-43
2022/10/25 15:35:58;;;;;;;;;;;;;;;;;;5125380;27;20002;-40
2022/10/25 15:38:24;;;;;;;;;;;;;;;;;;5114080;28;20342;-41
2022/10/25 15:40:49;;;;;;;;;;;;;;;;;;5132883;27;19964;-40
2022/10/25 15:43:15;;;;;;;;;;;;;;;;;;5135984;27;19918;-40
2022/10/25 15:45:41;;;;;;;;;;;;;;;;;;5133148;27;20440;-40
2022/10/25 15:48:07;;;;;;;;;;;;;;;;;;5136348;27;19908;-40
2022/10/25 15:50:33;;;;;;;;;;;;;;;;;;5133835;27;19911;-41
2022/10/25 15:53:00;;;;;;;;;;;;;;;;;;5133096;27;20028;-38
2022/10/25 15:55:26;;;;;;;;;;;;;;;;;;5122040;27;19907;-38
2022/10/25 15:57:51;;;;;;;;;;;;;;;;;;5135428;27;19919;-38
2022/10/25 16:00:17;;;;;;;;;;;;;;;;;;5136874;27;19918;-38
2022/10/25 16:02:43;;;;;;;;;;;;;;;;;;5132764;27;20438;-38
2022/10/25 16:05:09;;;;;;;;;;;;;;;;;;5134092;27;19907;-39
2022/10/25 16:07:35;;;;;;;;;;;;;;;;;;5133761;27;20261;-41
2022/10/25 16:10:01;;;;;;;;;;;;;;;;;;5125208;27;19912;-39
2022/10/25 16:12:27;;;;;;;;;;;;;;;;;;5119726;27;20006;-40
2022/10/25 16:14:52;;;;;;;;;;;;;;;;;;5134369;27;19908;-40
2022/10/25 16:17:18;;;;;;;;;;;;;;;;;;5123561;27;19933;-40
2022/10/25 16:19:44;;;;;;;;;;;;;;;;;;5114812;27;20617;-40
2022/10/25 16:22:10;;;;;;;;;;;;;;;;;;5135759;27;20014;-42
2022/10/25 16:24:36;;;;;;;;;;;;;;;;;;5135120;27;19998;-41
2022/10/25 16:27:02;;;;;;;;;;;;;;;;;;5134019;27;20271;-40
2022/10/25 16:29:28;;;;;;;;;;;;;;;;;;5117850;27;19908;-41
2022/10/25 16:31:54;;;;;;;;;;;;;;;;;;5134990;27;20501;-41
2022/10/25 16:34:20;;;;;;;;;;;;;;;;;;5126251;27;19908;-41
2022/10/25 16:36:46;;;;;;;;;;;;;;;;;;5117028;27;19907;-42
2022/10/25 16:39:12;;;;;;;;;;;;;;;;;;5133859;27;19956;-41